Terminal Aerodrome Forecast
Issued by NWS

Current Version | Previous Version | Text Only | Print | Product List | Glossary Off
Versions: 1 2 3 4 5 6 7 8 9 10 11 12 13 14 15 16 17 18 19 20 21 22 23 24 25

000
FTUS41 KRNK 231737
TAFLWB
TAF
KLWB 231737Z 2318/2418 09005KT P6SM -SHRA OVC005
     FM240000 08005KT P6SM OVC008
      TEMPO 2400/2403 2SM -SHRA OVC003
     FM240500 VRB03KT P6SM OVC001
     FM240700 00000KT P6SM OVC001
     FM241600 12006KT P6SM OVC015
     FM241700 13007KT P6SM VCSH OVC015=

USA.gov is the U.S. government's official web portal to all federal, state and local government web resources and services.